sensor_id;sensor_type;location;lat;lon;timestamp;pressure;altitude;pressure_sealevel;temperature;humidity
73824;BME280;62154;54.914;73.444;2023-11-21T00:01:47;102578.94;;;-11.54;100.00
73824;BME280;62154;54.914;73.444;2023-11-21T00:04:14;102560.06;;;-11.46;100.00
73824;BME280;62154;54.914;73.444;2023-11-21T00:06:42;102535.28;;;-11.60;100.00
73824;BME280;62154;54.914;73.444;2023-11-21T00:09:11;102569.00;;;-11.47;100.00
73824;BME280;62154;54.914;73.444;2023-11-21T00:11:39;102534.47;;;-11.66;100.00
73824;BME280;62154;54.914;73.444;2023-11-21T00:14:07;102587.66;;;-11.41;100.00
73824;BME280;62154;54.914;73.444;2023-11-21T00:16:34;102605.56;;;-11.46;100.00
73824;BME280;62154;54.914;73.444;2023-11-21T00:19:02;102565.06;;;-11.82;100.00
73824;BME280;62154;54.914;73.444;2023-11-21T00:21:29;102616.44;;;-11.58;100.00
73824;BME280;62154;54.914;73.444;2023-11-21T00:23:56;102620.91;;;-11.59;100.00
73824;BME280;62154;54.914;73.444;2023-11-21T00:26:24;102618.22;;;-11.57;100.00
73824;BME280;62154;54.914;73.444;2023-11-21T00:29:01;102607.63;;;-11.67;100.00
73824;BME280;62154;54.914;73.444;2023-11-21T00:31:30;102616.53;;;-11.65;100.00
73824;BME280;62154;54.914;73.444;2023-11-21T00:34:00;102618.34;;;-11.67;100.00
73824;BME280;62154;54.914;73.444;2023-11-21T00:36:27;102609.50;;;-11.72;100.00
73824;BME280;62154;54.914;73.444;2023-11-21T00:38:55;102610.31;;;-11.67;100.00
73824;BME280;62154;54.914;73.444;2023-11-21T00:41:22;102604.13;;;-11.69;100.00
73824;BME280;62154;54.914;73.444;2023-11-21T00:43:49;102618.28;;;-11.62;100.00
73824;BME280;62154;54.914;73.444;2023-11-21T00:46:17;102615.66;;;-11.67;100.00
73824;BME280;62154;54.914;73.444;2023-11-21T00:48:44;102620.09;;;-11.62;100.00
73824;BME280;62154;54.914;73.444;2023-11-21T00:51:11;102622.72;;;-11.61;100.00
73824;BME280;62154;54.914;73.444;2023-11-21T00:53:39;102589.38;;;-11.98;100.00
73824;BME280;62154;54.914;73.444;2023-11-21T00:56:10;102631.78;;;-11.70;100.00
73824;BME280;62154;54.914;73.444;2023-11-21T00:58:38;102641.56;;;-11.67;100.00
73824;BME280;62154;54.914;73.444;2023-11-21T01:01:05;102629.09;;;-11.70;100.00
73824;BME280;62154;54.914;73.444;2023-11-21T01:03:43;102638.00;;;-11.68;100.00
73824;BME280;62154;54.914;73.444;2023-11-21T01:06:16;102586.59;;;-11.91;100.00
73824;BME280;62154;54.914;73.444;2023-11-21T01:08:44;102610.38;;;-11.70;100.00
73824;BME280;62154;54.914;73.444;2023-11-21T01:11:12;102592.69;;;-11.83;100.00
73824;BME280;62154;54.914;73.444;2023-11-21T01:13:42;102623.69;;;-11.67;100.00
73824;BME280;62154;54.914;73.444;2023-11-21T01:16:11;102626.25;;;-11.57;100.00
73824;BME280;62154;54.914;73.444;2023-11-21T01:18:39;102577.50;;;-11.80;100.00
73824;BME280;62154;54.914;73.444;2023-11-21T01:21:06;102628.97;;;-11.60;100.00
73824;BME280;62154;54.914;73.444;2023-11-21T01:23:34;102641.47;;;-11.61;100.00
73824;BME280;62154;54.914;73.444;2023-11-21T01:26:02;102553.00;;;-12.11;100.00
73824;BME280;62154;54.914;73.444;2023-11-21T01:28:30;102633.34;;;-11.56;100.00
73824;BME280;62154;54.914;73.444;2023-11-21T01:30:58;102625.34;;;-11.58;100.00
73824;BME280;62154;54.914;73.444;2023-11-21T01:33:25;102622.75;;;-11.62;100.00
73824;BME280;62154;54.914;73.444;2023-11-21T01:35:52;102636.97;;;-11.57;100.00
73824;BME280;62154;54.914;73.444;2023-11-21T01:38:21;102635.19;;;-11.58;100.00
73824;BME280;62154;54.914;73.444;2023-11-21T01:40:49;102617.41;;;-11.62;100.00
73824;BME280;62154;54.914;73.444;2023-11-21T01:43:16;102628.72;;;-11.45;100.00
73824;BME280;62154;54.914;73.444;2023-11-21T01:45:44;102619.06;;;-11.54;100.00
73824;BME280;62154;54.914;73.444;2023-11-21T01:48:15;102627.84;;;-11.45;100.00
73824;BME280;62154;54.914;73.444;2023-11-21T01:50:43;102620.97;;;-11.62;100.00
73824;BME280;62154;54.914;73.444;2023-11-21T01:53:12;102623.56;;;-11.59;100.00
73824;BME280;62154;54.914;73.444;2023-11-21T01:55:42;102607.78;;;-11.76;100.00
73824;BME280;62154;54.914;73.444;2023-11-21T01:58:10;102591.19;;;-11.98;100.00
73824;BME280;62154;54.914;73.444;2023-11-21T02:00:39;102578.84;;;-12.11;100.00
73824;BME280;62154;54.914;73.444;2023-11-21T02:03:06;102631.28;;;-11.97;100.00
73824;BME280;62154;54.914;73.444;2023-11-21T02:05:34;102617.13;;;-12.06;100.00
73824;BME280;62154;54.914;73.444;2023-11-21T02:08:01;102619.84;;;-12.11;100.00
73824;BME280;62154;54.914;73.444;2023-11-21T02:10:30;102619.00;;;-12.15;100.00
73824;BME280;62154;54.914;73.444;2023-11-21T02:12:58;102578.44;;;-12.51;100.00
73824;BME280;62154;54.914;73.444;2023-11-21T02:15:29;102614.81;;;-12.37;100.00
73824;BME280;62154;54.914;73.444;2023-11-21T02:17:57;102582.09;;;-12.59;100.00
73824;BME280;62154;54.914;73.444;2023-11-21T02:20:25;102613.19;;;-12.51;100.00
73824;BME280;62154;54.914;73.444;2023-11-21T02:22:57;102625.53;;;-12.40;100.00
73824;BME280;62154;54.914;73.444;2023-11-21T02:25:29;102618.56;;;-12.54;100.00
73824;BME280;62154;54.914;73.444;2023-11-21T02:27:58;102631.78;;;-12.40;100.00
73824;BME280;62154;54.914;73.444;2023-11-21T02:30:27;102594.56;;;-12.58;100.00
73824;BME280;62154;54.914;73.444;2023-11-21T02:32:55;102642.44;;;-12.38;100.00
73824;BME280;62154;54.914;73.444;2023-11-21T02:35:24;102605.25;;;-12.58;100.00
73824;BME280;62154;54.914;73.444;2023-11-21T02:37:53;102641.50;;;-12.34;100.00
73824;BME280;62154;54.914;73.444;2023-11-21T02:40:21;102627.28;;;-12.35;100.00
73824;BME280;62154;54.914;73.444;2023-11-21T02:42:49;102583.88;;;-12.58;100.00
73824;BME280;62154;54.914;73.444;2023-11-21T02:45:19;102630.78;;;-12.33;100.00
73824;BME280;62154;54.914;73.444;2023-11-21T02:47:48;102576.81;;;-12.63;100.00
73824;BME280;62154;54.914;73.444;2023-11-21T02:50:20;102624.63;;;-12.38;100.00
73824;BME280;62154;54.914;73.444;2023-11-21T02:52:49;102630.00;;;-12.42;100.00
73824;BME280;62154;54.914;73.444;2023-11-21T02:55:18;102626.50;;;-12.46;100.00
73824;BME280;62154;54.914;73.444;2023-11-21T02:57:45;102568.00;;;-12.74;100.00
73824;BME280;62154;54.914;73.444;2023-11-21T03:00:13;102539.72;;;-12.93;100.00
73824;BME280;62154;54.914;73.444;2023-11-21T03:02:41;102633.59;;;-12.45;100.00
73824;BME280;62154;54.914;73.444;2023-11-21T03:05:09;102587.63;;;-12.78;100.00
73824;BME280;62154;54.914;73.444;2023-11-21T03:07:37;102623.03;;;-12.56;100.00
73824;BME280;62154;54.914;73.444;2023-11-21T03:10:06;102608.91;;;-12.69;100.00
73824;BME280;62154;54.914;73.444;2023-11-21T03:12:36;102629.31;;;-12.60;100.00
73824;BME280;62154;54.914;73.444;2023-11-21T03:15:05;102537.19;;;-13.09;100.00
73824;BME280;62154;54.914;73.444;2023-11-21T03:17:33;102578.69;;;-12.75;100.00
73824;BME280;62154;54.914;73.444;2023-11-21T03:20:04;102607.06;;;-12.62;100.00
73824;BME280;62154;54.914;73.444;2023-11-21T03:22:31;102609.75;;;-12.64;100.00
73824;BME280;62154;54.914;73.444;2023-11-21T03:24:59;102567.19;;;-12.79;100.00
73824;BME280;62154;54.914;73.444;2023-11-21T03:27:32;102615.81;;;-12.46;100.00
73824;BME280;62154;54.914;73.444;2023-11-21T03:29:59;102613.13;;;-12.48;100.00
73824;BME280;62154;54.914;73.444;2023-11-21T03:32:29;102596.34;;;-12.60;100.00
73824;BME280;62154;54.914;73.444;2023-11-21T03:35:00;102630.09;;;-12.50;100.00
73824;BME280;62154;54.914;73.444;2023-11-21T03:37:29;102632.78;;;-12.49;100.00
73824;BME280;62154;54.914;73.444;2023-11-21T03:39:56;102640.69;;;-12.41;100.00
73824;BME280;62154;54.914;73.444;2023-11-21T03:42:24;102623.84;;;-12.46;100.00
73824;BME280;62154;54.914;73.444;2023-11-21T03:44:54;102627.31;;;-12.42;100.00
73824;BME280;62154;54.914;73.444;2023-11-21T03:47:22;102624.66;;;-12.41;100.00
73824;BME280;62154;54.914;73.444;2023-11-21T03:49:49;102639.81;;;-12.43;100.00
73824;BME280;62154;54.914;73.444;2023-11-21T03:52:17;102654.97;;;-12.45;100.00
73824;BME280;62154;54.914;73.444;2023-11-21T03:54:44;102647.03;;;-12.50;100.00
73824;BME280;62154;54.914;73.444;2023-11-21T03:57:12;102655.84;;;-12.40;100.00
73824;BME280;62154;54.914;73.444;2023-11-21T03:59:43;102619.63;;;-12.72;100.00
73824;BME280;62154;54.914;73.444;2023-11-21T04:02:10;102667.38;;;-12.35;100.00
73824;BME280;62154;54.914;73.444;2023-11-21T04:04:37;102592.72;;;-12.53;100.00
73824;BME280;62154;54.914;73.444;2023-11-21T04:07:05;102637.81;;;-12.24;100.00
73824;BME280;62154;54.914;73.444;2023-11-21T04:09:32;102606.97;;;-12.51;100.00
73824;BME280;62154;54.914;73.444;2023-11-21T04:11:59;102648.56;;;-12.28;100.00
73824;BME280;62154;54.914;73.444;2023-11-21T04:14:27;102649.44;;;-12.23;100.00
73824;BME280;62154;54.914;73.444;2023-11-21T04:16:56;102630.69;;;-12.22;100.00
73824;BME280;62154;54.914;73.444;2023-11-21T04:19:23;102634.13;;;-12.14;100.00
73824;BME280;62154;54.914;73.444;2023-11-21T04:21:50;102582.78;;;-12.42;100.00
73824;BME280;62154;54.914;73.444;2023-11-21T04:24:18;102588.13;;;-12.42;100.00
73824;BME280;62154;54.914;73.444;2023-11-21T04:26:45;102590.84;;;-12.47;100.00
73824;BME280;62154;54.914;73.444;2023-11-21T04:29:13;102630.66;;;-12.20;100.00
73824;BME280;62154;54.914;73.444;2023-11-21T04:31:50;102626.28;;;-12.26;100.00
73824;BME280;62154;54.914;73.444;2023-11-21T04:34:17;102600.53;;;-12.33;100.00
73824;BME280;62154;54.914;73.444;2023-11-21T04:36:45;102539.38;;;-12.64;100.00
73824;BME280;62154;54.914;73.444;2023-11-21T04:39:13;102563.47;;;-12.67;100.00
73824;BME280;62154;54.914;73.444;2023-11-21T04:41:40;102584.84;;;-12.67;100.00
73824;BME280;62154;54.914;73.444;2023-11-21T04:44:08;102557.31;;;-12.74;100.00
73824;BME280;62154;54.914;73.444;2023-11-21T04:46:35;102607.78;;;-12.48;100.00
73824;BME280;62154;54.914;73.444;2023-11-21T04:49:03;102467.88;;;-13.20;100.00
73824;BME280;62154;54.914;73.444;2023-11-21T04:51:30;102587.06;;;-12.28;100.00
73824;BME280;62154;54.914;73.444;2023-11-21T04:53:59;102571.00;;;-12.25;100.00
73824;BME280;62154;54.914;73.444;2023-11-21T04:56:26;102562.22;;;-12.35;100.00
73824;BME280;62154;54.914;73.444;2023-11-21T04:58:54;102573.75;;;-12.32;100.00
73824;BME280;62154;54.914;73.444;2023-11-21T05:01:21;102583.44;;;-12.21;100.00
73824;BME280;62154;54.914;73.444;2023-11-21T05:03:49;102590.59;;;-12.23;100.00
73824;BME280;62154;54.914;73.444;2023-11-21T05:06:16;102603.94;;;-12.22;100.00
73824;BME280;62154;54.914;73.444;2023-11-21T05:08:44;102601.38;;;-12.30;100.00
73824;BME280;62154;54.914;73.444;2023-11-21T05:11:11;102600.44;;;-12.27;100.00
73824;BME280;62154;54.914;73.444;2023-11-21T05:13:39;102567.75;;;-12.51;100.00
73824;BME280;62154;54.914;73.444;2023-11-21T05:16:06;102611.06;;;-12.21;100.00
73824;BME280;62154;54.914;73.444;2023-11-21T05:18:34;102613.72;;;-12.19;100.00
73824;BME280;62154;54.914;73.444;2023-11-21T05:21:02;102573.88;;;-12.42;100.00
73824;BME280;62154;54.914;73.444;2023-11-21T05:23:29;102631.41;;;-12.09;100.00
73824;BME280;62154;54.914;73.444;2023-11-21T05:25:57;102612.63;;;-12.03;100.00
73824;BME280;62154;54.914;73.444;2023-11-21T05:28:24;102560.31;;;-12.25;100.00
73824;BME280;62154;54.914;73.444;2023-11-21T05:30:52;102608.22;;;-12.07;100.00
73824;BME280;62154;54.914;73.444;2023-11-21T05:33:20;102601.06;;;-12.05;100.00
73824;BME280;62154;54.914;73.444;2023-11-21T05:35:47;102601.06;;;-12.06;100.00
73824;BME280;62154;54.914;73.444;2023-11-21T05:38:15;102602.88;;;-12.07;100.00
73824;BME280;62154;54.914;73.444;2023-11-21T05:40:42;102540.06;;;-12.43;100.00
73824;BME280;62154;54.914;73.444;2023-11-21T05:43:10;102599.50;;;-12.23;100.00
73824;BME280;62154;54.914;73.444;2023-11-21T05:45:38;102594.03;;;-12.12;100.00
73824;BME280;62154;54.914;73.444;2023-11-21T05:48:06;102597.53;;;-12.07;100.00
73824;BME280;62154;54.914;73.444;2023-11-21T05:50:33;102594.06;;;-12.15;100.00
73824;BME280;62154;54.914;73.444;2023-11-21T05:53:01;102607.44;;;-12.17;100.00
73824;BME280;62154;54.914;73.444;2023-11-21T05:55:29;102574.69;;;-12.34;100.00
73824;BME280;62154;54.914;73.444;2023-11-21T05:57:57;102625.16;;;-12.06;100.00
73824;BME280;62154;54.914;73.444;2023-11-21T06:00:25;102606.38;;;-12.02;100.00
73824;BME280;62154;54.914;73.444;2023-11-21T06:02:54;102609.91;;;-11.98;100.00
73824;BME280;62154;54.914;73.444;2023-11-21T06:05:25;102604.56;;;-12.01;100.00
73824;BME280;62154;54.914;73.444;2023-11-21T06:07:54;102590.28;;;-11.99;100.00
73824;BME280;62154;54.914;73.444;2023-11-21T06:10:25;102596.31;;;-11.84;100.00
73824;BME280;62154;54.914;73.444;2023-11-21T06:12:53;102596.19;;;-11.78;100.00
73824;BME280;62154;54.914;73.444;2023-11-21T06:15:21;102544.00;;;-12.05;100.00
73824;BME280;62154;54.914;73.444;2023-11-21T06:17:51;102601.47;;;-11.72;100.00
73824;BME280;62154;54.914;73.444;2023-11-21T06:20:22;102587.91;;;-11.59;100.00
73824;BME280;62154;54.914;73.444;2023-11-21T06:22:51;102598.28;;;-11.38;100.00
73824;BME280;62154;54.914;73.444;2023-11-21T06:25:18;102594.47;;;-11.21;100.00
73824;BME280;62154;54.914;73.444;2023-11-21T06:27:47;102598.81;;;-11.14;100.00
73824;BME280;62154;54.914;73.444;2023-11-21T06:30:15;102576.47;;;-11.13;100.00
73824;BME280;62154;54.914;73.444;2023-11-21T06:32:43;102571.03;;;-11.07;100.00
73824;BME280;62154;54.914;73.444;2023-11-21T06:35:14;102570.13;;;-11.07;100.00
73824;BME280;62154;54.914;73.444;2023-11-21T06:37:42;102574.50;;;-11.02;100.00
73824;BME280;62154;54.914;73.444;2023-11-21T06:40:14;102542.56;;;-11.14;100.00
73824;BME280;62154;54.914;73.444;2023-11-21T06:42:42;102560.03;;;-10.91;100.00
73824;BME280;62154;54.914;73.444;2023-11-21T06:45:11;102517.44;;;-11.07;100.00
73824;BME280;62154;54.914;73.444;2023-11-21T06:47:38;102541.88;;;-10.77;100.00
73824;BME280;62154;54.914;73.444;2023-11-21T06:50:06;102532.72;;;-10.63;100.00
73824;BME280;62154;54.914;73.444;2023-11-21T06:52:34;102527.81;;;-10.43;100.00
73824;BME280;62154;54.914;73.444;2023-11-21T06:55:01;102531.09;;;-10.30;100.00
73824;BME280;62154;54.914;73.444;2023-11-21T06:57:29;102528.31;;;-10.25;100.00
73824;BME280;62154;54.914;73.444;2023-11-21T06:59:59;102524.72;;;-10.24;100.00
73824;BME280;62154;54.914;73.444;2023-11-21T07:02:27;102520.97;;;-10.17;100.00
73824;BME280;62154;54.914;73.444;2023-11-21T07:04:54;102528.06;;;-10.13;100.00
73824;BME280;62154;54.914;73.444;2023-11-21T07:07:22;102523.66;;;-10.16;100.00
73824;BME280;62154;54.914;73.444;2023-11-21T07:09:51;102514.53;;;-10.07;100.00
73824;BME280;62154;54.914;73.444;2023-11-21T07:12:18;102505.44;;;-10.01;100.00
73824;BME280;62154;54.914;73.444;2023-11-21T07:14:46;102496.44;;;-9.98;100.00
73824;BME280;62154;54.914;73.444;2023-11-21T07:17:13;102454.19;;;-10.28;100.00
73824;BME280;62154;54.914;73.444;2023-11-21T07:19:40;102510.75;;;-9.98;100.00
73824;BME280;62154;54.914;73.444;2023-11-21T07:22:08;102505.59;;;-10.09;100.00
73824;BME280;62154;54.914;73.444;2023-11-21T07:24:36;102523.31;;;-10.00;100.00
73824;BME280;62154;54.914;73.444;2023-11-21T07:27:03;102527.59;;;-9.91;100.00
73824;BME280;62154;54.914;73.444;2023-11-21T07:29:33;102523.91;;;-9.87;100.00
73824;BME280;62154;54.914;73.444;2023-11-21T07:32:01;102511.13;;;-9.76;100.00
73824;BME280;62154;54.914;73.444;2023-11-21T07:34:28;102466.91;;;-9.98;100.00
73824;BME280;62154;54.914;73.444;2023-11-21T07:36:55;102497.28;;;-9.59;100.00
73824;BME280;62154;54.914;73.444;2023-11-21T07:39:22;102490.88;;;-9.53;100.00
73824;BME280;62154;54.914;73.444;2023-11-21T07:41:50;102479.38;;;-9.58;100.00
73824;BME280;62154;54.914;73.444;2023-11-21T07:44:17;102485.59;;;-9.56;100.00
73824;BME280;62154;54.914;73.444;2023-11-21T07:46:45;102483.69;;;-9.53;100.00
73824;BME280;62154;54.914;73.444;2023-11-21T07:49:12;102428.81;;;-9.77;100.00
73824;BME280;62154;54.914;73.444;2023-11-21T07:51:47;102481.00;;;-9.51;100.00
73824;BME280;62154;54.914;73.444;2023-11-21T07:54:15;102481.97;;;-9.54;100.00
73824;BME280;62154;54.914;73.444;2023-11-21T07:56:43;102505.00;;;-9.45;100.00
73824;BME280;62154;54.914;73.444;2023-11-21T07:59:10;102492.25;;;-9.37;100.00
73824;BME280;62154;54.914;73.444;2023-11-21T08:01:38;102491.53;;;-9.43;100.00
73824;BME280;62154;54.914;73.444;2023-11-21T08:04:07;102497.63;;;-9.37;100.00
73824;BME280;62154;54.914;73.444;2023-11-21T08:06:36;102475.38;;;-9.42;100.00
73824;BME280;62154;54.914;73.444;2023-11-21T08:09:04;102452.97;;;-9.41;100.00
73824;BME280;62154;54.914;73.444;2023-11-21T08:11:31;102397.63;;;-9.81;100.00
73824;BME280;62154;54.914;73.444;2023-11-21T08:13:59;102404.78;;;-9.81;100.00
73824;BME280;62154;54.914;73.444;2023-11-21T08:16:27;102446.16;;;-9.54;100.00
73824;BME280;62154;54.914;73.444;2023-11-21T08:18:54;102404.66;;;-9.77;100.00
73824;BME280;62154;54.914;73.444;2023-11-21T08:21:22;102432.06;;;-9.62;100.00
73824;BME280;62154;54.914;73.444;2023-11-21T08:23:55;102409.34;;;-9.85;100.00
73824;BME280;62154;54.914;73.444;2023-11-21T08:26:23;102446.25;;;-9.57;100.00
73824;BME280;62154;54.914;73.444;2023-11-21T08:28:51;102450.50;;;-9.50;100.00
73824;BME280;62154;54.914;73.444;2023-11-21T08:31:26;102451.13;;;-9.39;100.00
73824;BME280;62154;54.914;73.444;2023-11-21T08:33:53;102431.41;;;-9.38;100.00
73824;BME280;62154;54.914;73.444;2023-11-21T08:36:23;102459.63;;;-9.21;100.00
73824;BME280;62154;54.914;73.444;2023-11-21T08:38:53;102448.16;;;-9.28;100.00
73824;BME280;62154;54.914;73.444;2023-11-21T08:41:21;102412.16;;;-9.54;100.00
73824;BME280;62154;54.914;73.444;2023-11-21T08:43:50;102449.78;;;-9.22;100.00
73824;BME280;62154;54.914;73.444;2023-11-21T08:46:17;102437.03;;;-9.14;100.00
73824;BME280;62154;54.914;73.444;2023-11-21T08:48:45;102446.56;;;-9.02;100.00
73824;BME280;62154;54.914;73.444;2023-11-21T08:51:15;102393.47;;;-9.25;100.00
73824;BME280;62154;54.914;73.444;2023-11-21T08:53:42;102440.16;;;-8.96;100.00
73824;BME280;62154;54.914;73.444;2023-11-21T08:56:13;102433.88;;;-8.97;100.00
73824;BME280;62154;54.914;73.444;2023-11-21T08:58:43;102434.59;;;-8.90;100.00
73824;BME280;62154;54.914;73.444;2023-11-21T09:01:10;102436.16;;;-8.83;100.00
73824;BME280;62154;54.914;73.444;2023-11-21T09:03:38;102431.53;;;-8.78;100.00
73824;BME280;62154;54.914;73.444;2023-11-21T09:06:06;102385.50;;;-8.97;100.00
73824;BME280;62154;54.914;73.444;2023-11-21T09:08:36;102419.06;;;-8.79;100.00
73824;BME280;62154;54.914;73.444;2023-11-21T09:11:07;102395.59;;;-8.74;100.00
73824;BME280;62154;54.914;73.444;2023-11-21T09:13:35;102390.97;;;-8.69;100.00
73824;BME280;62154;54.914;73.444;2023-11-21T09:16:03;102385.75;;;-8.75;100.00
73824;BME280;62154;54.914;73.444;2023-11-21T09:18:31;102367.31;;;-8.87;100.00
73824;BME280;62154;54.914;73.444;2023-11-21T09:20:58;102374.84;;;-9.00;100.00
73824;BME280;62154;54.914;73.444;2023-11-21T09:23:25;102379.66;;;-9.11;100.00
73824;BME280;62154;54.914;73.444;2023-11-21T09:25:53;102380.94;;;-9.26;100.00
73824;BME280;62154;54.914;73.444;2023-11-21T09:28:23;102373.22;;;-9.39;100.00
73824;BME280;62154;54.914;73.444;2023-11-21T09:30:50;102384.59;;;-9.29;100.00
73824;BME280;62154;54.914;73.444;2023-11-21T09:33:18;102333.53;;;-9.60;100.00
73824;BME280;62154;54.914;73.444;2023-11-21T09:35:45;102381.22;;;-9.36;100.00
73824;BME280;62154;54.914;73.444;2023-11-21T09:38:12;102374.25;;;-9.43;100.00
73824;BME280;62154;54.914;73.444;2023-11-21T09:40:40;102328.47;;;-9.73;100.00
73824;BME280;62154;54.914;73.444;2023-11-21T09:43:12;102324.09;;;-9.75;100.00
73824;BME280;62154;54.914;73.444;2023-11-21T09:45:47;102363.06;;;-9.60;100.00
73824;BME280;62154;54.914;73.444;2023-11-21T09:48:15;102370.31;;;-9.64;100.00
73824;BME280;62154;54.914;73.444;2023-11-21T09:50:43;102368.59;;;-9.65;100.00
73824;BME280;62154;54.914;73.444;2023-11-21T09:53:20;102361.81;;;-9.80;100.00
73824;BME280;62154;54.914;73.444;2023-11-21T09:55:50;102354.16;;;-9.97;100.00
73824;BME280;62154;54.914;73.444;2023-11-21T09:58:18;102391.19;;;-9.75;100.00
73824;BME280;62154;54.914;73.444;2023-11-21T10:00:48;102387.88;;;-9.85;100.00
73824;BME280;62154;54.914;73.444;2023-11-21T10:03:16;102395.03;;;-9.84;100.00
73824;BME280;62154;54.914;73.444;2023-11-21T10:05:44;102417.31;;;-9.82;100.00
73824;BME280;62154;54.914;73.444;2023-11-21T10:08:15;102426.22;;;-9.80;100.00
73824;BME280;62154;54.914;73.444;2023-11-21T10:10:44;102394.34;;;-9.94;100.00
73824;BME280;62154;54.914;73.444;2023-11-21T10:13:13;102410.16;;;-9.81;100.00
73824;BME280;62154;54.914;73.444;2023-11-21T10:15:43;102408.34;;;-9.81;100.00
73824;BME280;62154;54.914;73.444;2023-11-21T10:18:17;102395.78;;;-9.80;100.00
73824;BME280;62154;54.914;73.444;2023-11-21T10:20:45;102344.53;;;-10.04;100.00
73824;BME280;62154;54.914;73.444;2023-11-21T10:23:22;102400.19;;;-9.78;100.00
73824;BME280;62154;54.914;73.444;2023-11-21T10:25:50;102373.31;;;-9.75;100.00
73824;BME280;62154;54.914;73.444;2023-11-21T10:28:19;102368.91;;;-9.77;100.00
73824;BME280;62154;54.914;73.444;2023-11-21T10:30:47;102362.66;;;-9.79;100.00
73824;BME280;62154;54.914;73.444;2023-11-21T10:33:14;102373.50;;;-9.82;100.00
73824;BME280;62154;54.914;73.444;2023-11-21T10:35:44;102368.25;;;-9.87;100.00
73824;BME280;62154;54.914;73.444;2023-11-21T10:38:21;102368.19;;;-9.84;100.00
73824;BME280;62154;54.914;73.444;2023-11-21T10:40:51;102326.63;;;-10.04;100.00
73824;BME280;62154;54.914;73.444;2023-11-21T10:43:19;102381.31;;;-9.73;100.00
73824;BME280;62154;54.914;73.444;2023-11-21T10:45:46;102330.06;;;-9.98;100.00
73824;BME280;62154;54.914;73.444;2023-11-21T10:48:14;102335.28;;;-9.92;100.00
73824;BME280;62154;54.914;73.444;2023-11-21T10:50:46;102380.28;;;-9.68;100.00
73824;BME280;62154;54.914;73.444;2023-11-21T10:53:14;102313.06;;;-9.97;100.00
73824;BME280;62154;54.914;73.444;2023-11-21T10:55:42;102353.44;;;-9.69;100.00
73824;BME280;62154;54.914;73.444;2023-11-21T10:58:13;102322.34;;;-9.76;100.00
73824;BME280;62154;54.914;73.444;2023-11-21T11:00:41;102338.03;;;-9.61;100.00
73824;BME280;62154;54.914;73.444;2023-11-21T11:03:12;102277.78;;;-9.84;100.00
73824;BME280;62154;54.914;73.444;2023-11-21T11:05:43;102319.06;;;-9.55;100.00
73824;BME280;62154;54.914;73.444;2023-11-21T11:08:27;102315.44;;;-9.52;100.00
73824;BME280;62154;54.914;73.444;2023-11-21T11:10:55;102257.13;;;-9.80;100.00
73824;BME280;62154;54.914;73.444;2023-11-21T11:13:22;102318.75;;;-9.44;100.00
73824;BME280;62154;54.914;73.444;2023-11-21T11:15:51;102294.75;;;-9.48;100.00
73824;BME280;62154;54.914;73.444;2023-11-21T11:18:25;102308.66;;;-9.34;100.00
73824;BME280;62154;54.914;73.444;2023-11-21T11:20:53;102312.25;;;-9.35;100.00
73824;BME280;62154;54.914;73.444;2023-11-21T11:26:46;102285.16;;;-9.26;100.00
73824;BME280;62154;54.914;73.444;2023-11-21T11:32:55;102273.03;;;-9.11;100.00
73824;BME280;62154;54.914;73.444;2023-11-21T11:35:24;102260.50;;;-9.10;100.00
73824;BME280;62154;54.914;73.444;2023-11-21T11:37:53;102219.88;;;-9.29;100.00
73824;BME280;62154;54.914;73.444;2023-11-21T11:40:22;102208.19;;;-9.28;100.00
73824;BME280;62154;54.914;73.444;2023-11-21T11:43:00;102217.81;;;-9.21;100.00
73824;BME280;62154;54.914;73.444;2023-11-21T11:45:35;102255.75;;;-9.02;100.00
73824;BME280;62154;54.914;73.444;2023-11-21T12:34:46;102179.81;;;-9.09;100.00
73824;BME280;62154;54.914;73.444;2023-11-21T12:37:14;102228.38;;;-8.87;100.00
73824;BME280;62154;54.914;73.444;2023-11-21T12:39:41;102242.47;;;-8.78;100.00
73824;BME280;62154;54.914;73.444;2023-11-21T12:42:09;102243.31;;;-8.76;100.00
73824;BME280;62154;54.914;73.444;2023-11-21T12:44:39;102199.84;;;-8.91;100.00
73824;BME280;62154;54.914;73.444;2023-11-21T12:47:08;102193.88;;;-9.01;100.00
73824;BME280;62154;54.914;73.444;2023-11-21T12:49:36;102232.41;;;-8.72;100.00
73824;BME280;62154;54.914;73.444;2023-11-21T12:52:04;102231.59;;;-8.74;100.00
73824;BME280;62154;54.914;73.444;2023-11-21T12:54:44;102183.13;;;-9.01;100.00
73824;BME280;62154;54.914;73.444;2023-11-21T12:57:11;102238.50;;;-8.66;100.00
73824;BME280;62154;54.914;73.444;2023-11-21T12:59:38;102230.59;;;-8.71;100.00
73824;BME280;62154;54.914;73.444;2023-11-21T13:02:06;102149.34;;;-9.08;100.00
73824;BME280;62154;54.914;73.444;2023-11-21T13:04:33;102215.09;;;-8.63;100.00
73824;BME280;62154;54.914;73.444;2023-11-21T13:07:05;102191.06;;;-8.67;100.00
73824;BME280;62154;54.914;73.444;2023-11-21T13:09:52;102164.56;;;-8.80;100.00
73824;BME280;62154;54.914;73.444;2023-11-21T13:12:24;102164.16;;;-8.67;100.00
73824;BME280;62154;54.914;73.444;2023-11-21T13:14:51;102149.00;;;-8.70;100.00
73824;BME280;62154;54.914;73.444;2023-11-21T13:17:32;102155.88;;;-8.61;100.00
73824;BME280;62154;54.914;73.444;2023-11-21T13:20:15;102163.28;;;-8.68;100.00
73824;BME280;62154;54.914;73.444;2023-11-21T13:22:57;102164.06;;;-8.64;100.00
73824;BME280;62154;54.914;73.444;2023-11-21T13:25:29;102174.88;;;-8.66;100.00
73824;BME280;62154;54.914;73.444;2023-11-21T13:27:58;102135.13;;;-8.85;100.00